createdAt,value
2019-02-17T00:04:54.819Z,67.79
2019-02-17T00:09:57.193Z,68.09
2019-02-17T00:14:59.639Z,68.07
2019-02-17T00:20:02.080Z,67.79
2019-02-17T00:25:04.540Z,68.11
2019-02-17T00:30:06.985Z,68.06
2019-02-17T00:35:09.448Z,67.93
2019-02-17T00:40:11.887Z,68.26
2019-02-17T00:45:14.327Z,68.31
2019-02-17T00:50:16.769Z,68.69
2019-02-17T00:55:19.218Z,68.31
2019-02-17T01:00:21.658Z,68.71
2019-02-17T01:05:24.100Z,68.63
2019-02-17T01:10:26.537Z,68.50
2019-02-17T01:15:28.982Z,68.77
2019-02-17T01:20:31.420Z,68.41
2019-02-17T01:25:33.876Z,68.12
2019-02-17T01:30:36.311Z,68.76
2019-02-17T01:35:38.751Z,68.24
2019-02-17T01:40:41.200Z,69.05
2019-02-17T01:45:43.643Z,69.28
2019-02-17T01:50:46.084Z,69.03
2019-02-17T01:55:48.526Z,68.73
2019-02-17T02:00:50.977Z,68.88
2019-02-17T02:05:53.437Z,68.97
2019-02-17T02:10:55.879Z,68.93
2019-02-17T02:15:58.320Z,68.83
2019-02-17T02:21:00.765Z,68.52
2019-02-17T02:26:03.218Z,68.56
2019-02-17T02:31:05.655Z,68.67
2019-02-17T02:36:08.098Z,68.68
2019-02-17T02:41:10.548Z,68.85
2019-02-17T02:46:12.976Z,68.87
2019-02-17T02:51:15.427Z,68.92
2019-02-17T02:56:17.852Z,68.95
2019-02-17T03:01:20.298Z,68.77
2019-02-17T03:06:22.735Z,68.60
2019-02-17T03:11:25.174Z,68.40
2019-02-17T03:16:27.617Z,68.35
2019-02-17T03:21:30.066Z,68.33
2019-02-17T03:26:32.499Z,68.51
2019-02-17T03:31:34.976Z,68.62
2019-02-17T03:36:37.422Z,68.69
2019-02-17T03:41:39.845Z,68.73
2019-02-17T03:46:42.290Z,68.84
2019-02-17T03:51:44.949Z,68.73
2019-02-17T03:56:47.384Z,68.92
2019-02-17T04:01:49.827Z,69.28
2019-02-17T04:06:52.261Z,69.61
2019-02-17T04:11:54.706Z,69.43
2019-02-17T04:16:57.157Z,68.99
2019-02-17T04:21:59.594Z,69.29
2019-02-17T04:27:02.058Z,69.18
2019-02-17T04:32:04.769Z,69.17
2019-02-17T04:37:07.189Z,69.00
2019-02-17T04:42:09.638Z,69.51
2019-02-17T04:47:12.224Z,69.09
2019-02-17T04:52:14.658Z,68.82
2019-02-17T04:57:17.102Z,68.90
2019-02-17T05:02:19.543Z,69.19
2019-02-17T05:07:21.996Z,69.22
2019-02-17T05:12:24.417Z,69.39
2019-02-17T05:17:26.855Z,69.27
2019-02-17T05:22:29.297Z,69.49
2019-02-17T05:27:31.731Z,69.32
2019-02-17T05:32:34.182Z,69.29
2019-02-17T05:37:36.616Z,69.24
2019-02-17T05:42:39.061Z,69.33
2019-02-17T05:47:41.490Z,69.47
2019-02-17T05:52:43.940Z,69.45
2019-02-17T05:57:46.378Z,69.64
2019-02-17T06:02:48.822Z,70.21
2019-02-17T06:07:51.256Z,70.05
2019-02-17T06:12:53.686Z,69.86
2019-02-17T06:17:56.132Z,69.83
2019-02-17T06:22:58.574Z,69.92
2019-02-17T06:28:01.044Z,69.99
2019-02-17T06:33:03.489Z,70.10
2019-02-17T06:38:05.933Z,69.96
2019-02-17T06:43:08.379Z,70.13
2019-02-17T06:48:10.830Z,69.87
2019-02-17T06:53:13.450Z,69.44
2019-02-17T06:58:15.898Z,69.17
2019-02-17T07:03:18.344Z,68.82
2019-02-17T07:08:20.784Z,68.42
2019-02-17T07:13:23.234Z,67.97
2019-02-17T07:18:25.668Z,67.49
2019-02-17T07:23:28.113Z,67.08
2019-02-17T07:28:30.554Z,66.45
2019-02-17T07:33:35.607Z,65.77
2019-02-17T07:38:38.076Z,64.97
2019-02-17T07:43:40.524Z,64.09
2019-02-17T07:48:42.966Z,63.40
2019-02-17T07:53:45.408Z,62.60
2019-02-17T07:58:47.854Z,61.69
2019-02-17T08:03:50.316Z,60.78
2019-02-17T08:08:52.759Z,59.72
2019-02-17T08:13:55.228Z,59.25
2019-02-17T08:18:57.664Z,57.90
2019-02-17T08:24:00.110Z,56.68
2019-02-17T08:29:02.565Z,56.01
2019-02-17T08:34:05.008Z,55.32
2019-02-17T08:39:07.453Z,54.51
2019-02-17T08:44:09.901Z,53.44
2019-02-17T08:49:12.439Z,52.76
2019-02-17T08:54:14.916Z,52.98
2019-02-17T08:59:17.444Z,51.70
2019-02-17T09:04:19.818Z,50.16
2019-02-17T09:09:22.291Z,49.65
2019-02-17T09:14:24.731Z,50.58
2019-02-17T09:19:27.187Z,50.77
2019-02-17T09:24:30.894Z,50.36
2019-02-17T09:29:33.361Z,50.04
2019-02-17T09:34:35.854Z,49.63
2019-02-17T09:39:38.353Z,49.50
2019-02-17T09:44:40.829Z,49.16
2019-02-17T09:49:43.251Z,48.96
2019-02-17T09:54:45.713Z,49.00
2019-02-17T09:59:48.159Z,48.31
2019-02-17T10:04:50.641Z,47.85
2019-02-17T10:09:53.090Z,47.86
2019-02-17T10:14:55.554Z,47.82
2019-02-17T10:19:58.019Z,47.50
2019-02-17T10:25:00.464Z,46.95
2019-02-17T10:30:02.927Z,46.58
2019-02-17T10:35:05.394Z,46.20
2019-02-17T10:40:07.855Z,46.19
2019-02-17T10:45:10.302Z,46.16
2019-02-17T10:50:12.778Z,46.44
2019-02-17T10:55:15.240Z,46.12
2019-02-17T11:00:20.344Z,46.32
2019-02-17T11:05:22.790Z,45.96
2019-02-17T11:10:25.302Z,45.87
2019-02-17T11:15:27.762Z,45.41
2019-02-17T11:20:30.221Z,44.73
2019-02-17T11:25:32.684Z,44.59
2019-02-17T11:30:35.143Z,44.84
2019-02-17T11:35:37.594Z,44.42
2019-02-17T11:40:40.061Z,44.58
2019-02-17T11:45:42.502Z,44.35
2019-02-17T11:50:44.937Z,43.69
2019-02-17T11:55:47.420Z,43.41
2019-02-17T12:00:49.871Z,43.89
2019-02-17T12:05:52.324Z,43.36
2019-02-17T12:10:54.778Z,43.31
2019-02-17T12:15:57.213Z,43.60
2019-02-17T12:20:59.664Z,42.77
2019-02-17T12:26:20.574Z,42.86
2019-02-17T12:31:23.038Z,42.62
2019-02-17T12:36:25.500Z,42.37
2019-02-17T12:41:27.949Z,41.69
2019-02-17T12:46:30.404Z,41.62
2019-02-17T12:51:32.945Z,40.50
2019-02-17T12:56:35.406Z,40.61
2019-02-17T13:01:37.858Z,39.65
2019-02-17T13:06:40.326Z,38.96
2019-02-17T13:11:42.788Z,38.16
2019-02-17T13:16:45.265Z,37.59
2019-02-17T13:21:47.730Z,38.08
2019-02-17T13:26:50.191Z,38.08
2019-02-17T13:31:52.649Z,37.73
2019-02-17T13:36:55.099Z,38.71
2019-02-17T13:41:57.561Z,37.61
2019-02-17T13:47:00.011Z,38.30
2019-02-17T13:52:02.467Z,36.76
2019-02-17T13:57:04.918Z,37.93
2019-02-17T14:02:07.450Z,37.42
2019-02-17T14:07:09.905Z,37.26
2019-02-17T14:12:12.361Z,38.40
2019-02-17T14:17:14.802Z,37.75
2019-02-17T14:22:17.257Z,37.26
2019-02-17T14:27:19.893Z,37.20
2019-02-17T14:32:22.345Z,37.61
2019-02-17T14:37:24.796Z,37.06
2019-02-17T14:42:27.279Z,37.36
2019-02-17T14:47:29.731Z,36.33
2019-02-17T14:52:32.199Z,35.93
2019-02-17T14:57:34.670Z,36.59
2019-02-17T15:02:37.137Z,36.55
2019-02-17T15:07:39.591Z,37.44
2019-02-17T15:12:42.063Z,38.21
2019-02-17T15:17:44.509Z,39.23
2019-02-17T15:22:47.016Z,39.27
2019-02-17T15:27:49.433Z,38.09
2019-02-17T15:32:51.889Z,38.83
2019-02-17T15:37:54.363Z,39.53
2019-02-17T15:42:56.808Z,39.52
2019-02-17T15:47:59.271Z,39.66
2019-02-17T15:53:01.725Z,39.36
2019-02-17T15:58:04.198Z,39.05
2019-02-17T16:03:06.746Z,39.05
2019-02-17T16:08:09.194Z,38.77
2019-02-17T16:13:11.652Z,37.78
2019-02-17T16:18:14.126Z,37.73
2019-02-17T16:23:16.594Z,38.28
2019-02-17T16:28:19.054Z,38.73
2019-02-17T16:33:21.532Z,39.38
2019-02-17T16:38:23.973Z,40.52
2019-02-17T16:43:26.420Z,41.73
2019-02-17T16:48:28.872Z,42.19
2019-02-17T16:53:31.324Z,42.93
2019-02-17T16:58:33.810Z,43.33
2019-02-17T17:03:36.301Z,44.42
2019-02-17T17:08:38.770Z,45.23
2019-02-17T17:13:41.231Z,45.85
2019-02-17T17:18:43.666Z,46.17
2019-02-17T17:23:46.130Z,47.45
2019-02-17T17:28:48.573Z,48.40
2019-02-17T17:33:51.046Z,49.40
2019-02-17T17:38:53.493Z,49.35
2019-02-17T17:43:55.977Z,49.58
2019-02-17T17:48:58.523Z,50.31
2019-02-17T17:54:00.986Z,51.12
2019-02-17T17:59:03.441Z,51.57
2019-02-17T18:04:06.138Z,52.22
2019-02-17T18:09:08.666Z,52.60
2019-02-17T18:14:11.180Z,53.18
2019-02-17T18:19:13.652Z,53.39
2019-02-17T18:24:16.107Z,54.04
2019-02-17T18:29:18.599Z,54.29
2019-02-17T18:34:21.036Z,54.72
2019-02-17T18:39:23.471Z,55.45
2019-02-17T18:44:25.925Z,55.45
2019-02-17T18:49:28.397Z,55.77
2019-02-17T18:54:30.827Z,56.07
2019-02-17T18:59:33.301Z,56.56
2019-02-17T19:04:35.747Z,56.81
2019-02-17T19:09:38.202Z,57.06
2019-02-17T19:14:40.672Z,57.38
2019-02-17T19:19:43.143Z,57.81
2019-02-17T19:24:45.608Z,58.22
2019-02-17T19:29:48.056Z,58.66
2019-02-17T19:34:50.543Z,58.08
2019-02-17T19:39:53.035Z,57.50
2019-02-17T19:44:55.493Z,56.33
2019-02-17T19:49:57.971Z,56.01
2019-02-17T19:55:00.525Z,56.23
2019-02-17T20:00:02.920Z,56.28
2019-02-17T20:05:05.416Z,56.75
2019-02-17T20:10:07.867Z,57.64
2019-02-17T20:15:10.405Z,57.70
2019-02-17T20:20:12.937Z,57.51
2019-02-17T20:25:15.339Z,58.05
2019-02-17T20:30:17.798Z,57.74
2019-02-17T20:35:20.238Z,58.06
2019-02-17T20:40:22.679Z,57.79
2019-02-17T20:45:25.149Z,57.67
2019-02-17T20:50:27.618Z,58.37
2019-02-17T20:55:30.065Z,58.29
2019-02-17T21:00:32.513Z,58.19
2019-02-17T21:05:34.955Z,58.47
2019-02-17T21:10:37.413Z,58.57
2019-02-17T21:15:39.879Z,57.90
2019-02-17T21:20:42.356Z,57.31
2019-02-17T21:25:44.807Z,57.03
2019-02-17T21:30:47.258Z,57.03
2019-02-17T21:35:49.728Z,56.91
2019-02-17T21:40:52.182Z,56.91
2019-02-17T21:45:54.689Z,57.00
2019-02-17T21:50:57.139Z,57.15
2019-02-17T21:55:59.586Z,57.10
2019-02-17T22:01:03.309Z,57.69
2019-02-17T22:06:04.498Z,57.92
2019-02-17T22:11:06.941Z,58.01
2019-02-17T22:16:09.398Z,58.25
2019-02-17T22:21:11.848Z,58.00
2019-02-17T22:26:14.286Z,57.92
2019-02-17T22:31:16.762Z,57.88
2019-02-17T22:36:19.211Z,57.99
2019-02-17T22:41:21.654Z,57.96
2019-02-17T22:46:24.094Z,58.37
2019-02-17T22:51:26.631Z,58.60
2019-02-17T22:56:29.069Z,58.71
2019-02-17T23:01:31.534Z,58.70
2019-02-17T23:06:33.983Z,58.93
2019-02-17T23:11:36.453Z,59.19
2019-02-17T23:16:38.906Z,59.75
2019-02-17T23:21:41.351Z,59.78
2019-02-17T23:26:43.790Z,60.58
2019-02-17T23:31:46.233Z,61.10
2019-02-17T23:36:48.691Z,61.11
2019-02-17T23:41:51.140Z,61.42
2019-02-17T23:46:53.586Z,61.92
2019-02-17T23:51:56.033Z,62.14
2019-02-17T23:56:58.494Z,62.05
